sensor_id;sensor_type;location;lat;lon;timestamp;temperature;humidity
10472;DHT22;5283;48.876;8.962;2024-01-11T00:01:34;-8.60;99.90
10472;DHT22;5283;48.876;8.962;2024-01-11T00:04:00;-8.60;99.90
10472;DHT22;5283;48.876;8.962;2024-01-11T00:06:27;-8.60;99.90
10472;DHT22;5283;48.876;8.962;2024-01-11T00:08:54;-8.50;99.90
10472;DHT22;5283;48.876;8.962;2024-01-11T00:11:20;-8.60;99.90
10472;DHT22;5283;48.876;8.962;2024-01-11T00:13:47;-8.70;99.90
10472;DHT22;5283;48.876;8.962;2024-01-11T00:16:14;-8.70;99.90
10472;DHT22;5283;48.876;8.962;2024-01-11T00:18:40;-8.70;99.90
10472;DHT22;5283;48.876;8.962;2024-01-11T00:21:07;-8.60;99.90
10472;DHT22;5283;48.876;8.962;2024-01-11T00:23:34;-8.70;99.90
10472;DHT22;5283;48.876;8.962;2024-01-11T00:26:01;-8.70;99.90
10472;DHT22;5283;48.876;8.962;2024-01-11T00:28:27;-8.60;99.90
10472;DHT22;5283;48.876;8.962;2024-01-11T00:30:54;-8.50;99.90
10472;DHT22;5283;48.876;8.962;2024-01-11T00:33:22;-8.40;99.90
10472;DHT22;5283;48.876;8.962;2024-01-11T00:35:49;-8.40;99.90
10472;DHT22;5283;48.876;8.962;2024-01-11T00:38:16;-8.40;99.90
10472;DHT22;5283;48.876;8.962;2024-01-11T00:40:42;-8.40;99.90
10472;DHT22;5283;48.876;8.962;2024-01-11T00:43:09;-8.40;99.90
10472;DHT22;5283;48.876;8.962;2024-01-11T00:45:36;-8.50;99.90
10472;DHT22;5283;48.876;8.962;2024-01-11T00:48:02;-8.60;99.90
10472;DHT22;5283;48.876;8.962;2024-01-11T00:50:30;-8.60;99.90
10472;DHT22;5283;48.876;8.962;2024-01-11T00:52:57;-8.70;99.90
10472;DHT22;5283;48.876;8.962;2024-01-11T00:55:24;-8.80;99.90
10472;DHT22;5283;48.876;8.962;2024-01-11T00:57:51;-8.90;99.90
10472;DHT22;5283;48.876;8.962;2024-01-11T01:00:18;-8.90;99.90
10472;DHT22;5283;48.876;8.962;2024-01-11T01:02:45;-8.80;99.90
10472;DHT22;5283;48.876;8.962;2024-01-11T01:05:12;-8.60;99.90
10472;DHT22;5283;48.876;8.962;2024-01-11T01:07:39;-8.60;99.90
10472;DHT22;5283;48.876;8.962;2024-01-11T01:10:06;-8.60;99.90
10472;DHT22;5283;48.876;8.962;2024-01-11T01:12:34;-8.60;99.90
10472;DHT22;5283;48.876;8.962;2024-01-11T01:15:01;-8.50;99.90
10472;DHT22;5283;48.876;8.962;2024-01-11T01:17:27;-8.50;99.90
10472;DHT22;5283;48.876;8.962;2024-01-11T01:19:54;-8.50;99.90
10472;DHT22;5283;48.876;8.962;2024-01-11T01:22:21;-8.50;99.90
10472;DHT22;5283;48.876;8.962;2024-01-11T01:24:47;-8.60;99.90
10472;DHT22;5283;48.876;8.962;2024-01-11T01:27:15;-8.60;99.90
10472;DHT22;5283;48.876;8.962;2024-01-11T01:29:42;-8.70;99.90
10472;DHT22;5283;48.876;8.962;2024-01-11T01:32:09;-8.90;99.90
10472;DHT22;5283;48.876;8.962;2024-01-11T01:34:35;-9.00;99.90
10472;DHT22;5283;48.876;8.962;2024-01-11T01:37:02;-9.00;99.90
10472;DHT22;5283;48.876;8.962;2024-01-11T01:39:29;-9.10;99.90
10472;DHT22;5283;48.876;8.962;2024-01-11T01:41:55;-9.10;99.90
10472;DHT22;5283;48.876;8.962;2024-01-11T01:44:22;-9.10;99.90
10472;DHT22;5283;48.876;8.962;2024-01-11T01:46:51;-9.10;99.90
10472;DHT22;5283;48.876;8.962;2024-01-11T01:49:17;-9.10;99.90
10472;DHT22;5283;48.876;8.962;2024-01-11T01:51:49;-9.00;99.90
10472;DHT22;5283;48.876;8.962;2024-01-11T01:54:17;-9.00;99.90
10472;DHT22;5283;48.876;8.962;2024-01-11T01:56:45;-9.00;99.90
10472;DHT22;5283;48.876;8.962;2024-01-11T01:59:12;-8.80;99.90
10472;DHT22;5283;48.876;8.962;2024-01-11T02:01:40;-8.80;99.90
10472;DHT22;5283;48.876;8.962;2024-01-11T02:04:07;-8.70;99.90
10472;DHT22;5283;48.876;8.962;2024-01-11T02:06:34;-8.80;99.90
10472;DHT22;5283;48.876;8.962;2024-01-11T02:09:01;-8.80;99.90
10472;DHT22;5283;48.876;8.962;2024-01-11T02:11:30;-8.80;99.90
10472;DHT22;5283;48.876;8.962;2024-01-11T02:13:57;-8.90;99.90
10472;DHT22;5283;48.876;8.962;2024-01-11T02:16:24;-9.00;99.90
10472;DHT22;5283;48.876;8.962;2024-01-11T02:18:51;-9.10;99.90
10472;DHT22;5283;48.876;8.962;2024-01-11T02:21:18;-9.10;99.90
10472;DHT22;5283;48.876;8.962;2024-01-11T02:24:02;-9.10;99.90
10472;DHT22;5283;48.876;8.962;2024-01-11T02:26:29;-9.00;99.90
10472;DHT22;5283;48.876;8.962;2024-01-11T02:28:56;-9.10;99.90
10472;DHT22;5283;48.876;8.962;2024-01-11T02:31:22;-9.10;99.90
10472;DHT22;5283;48.876;8.962;2024-01-11T02:33:51;-8.90;99.90
10472;DHT22;5283;48.876;8.962;2024-01-11T02:36:19;-8.80;99.90
10472;DHT22;5283;48.876;8.962;2024-01-11T02:38:47;-8.70;99.90
10472;DHT22;5283;48.876;8.962;2024-01-11T02:41:16;-8.80;99.90
10472;DHT22;5283;48.876;8.962;2024-01-11T02:43:49;-8.70;99.90
10472;DHT22;5283;48.876;8.962;2024-01-11T02:46:16;-8.80;99.90
10472;DHT22;5283;48.876;8.962;2024-01-11T02:48:43;-8.90;99.90
10472;DHT22;5283;48.876;8.962;2024-01-11T02:51:10;-8.90;99.90
10472;DHT22;5283;48.876;8.962;2024-01-11T02:53:36;-8.90;99.90
10472;DHT22;5283;48.876;8.962;2024-01-11T02:56:03;-8.90;99.90
10472;DHT22;5283;48.876;8.962;2024-01-11T02:58:30;-9.00;99.90
10472;DHT22;5283;48.876;8.962;2024-01-11T03:00:57;-9.00;99.90
10472;DHT22;5283;48.876;8.962;2024-01-11T03:03:24;-9.00;99.90
10472;DHT22;5283;48.876;8.962;2024-01-11T03:05:51;-9.00;99.90
10472;DHT22;5283;48.876;8.962;2024-01-11T03:08:17;-9.00;99.90
10472;DHT22;5283;48.876;8.962;2024-01-11T03:10:44;-9.00;99.90
10472;DHT22;5283;48.876;8.962;2024-01-11T03:13:11;-9.00;99.90
10472;DHT22;5283;48.876;8.962;2024-01-11T03:15:38;-9.10;99.90
10472;DHT22;5283;48.876;8.962;2024-01-11T03:18:05;-9.10;99.90
10472;DHT22;5283;48.876;8.962;2024-01-11T03:20:34;-9.00;99.90
10472;DHT22;5283;48.876;8.962;2024-01-11T03:23:01;-9.00;99.90
10472;DHT22;5283;48.876;8.962;2024-01-11T03:25:29;-8.90;99.90
10472;DHT22;5283;48.876;8.962;2024-01-11T03:27:57;-8.90;99.90
10472;DHT22;5283;48.876;8.962;2024-01-11T03:30:24;-8.90;99.90
10472;DHT22;5283;48.876;8.962;2024-01-11T03:32:51;-8.90;99.90
10472;DHT22;5283;48.876;8.962;2024-01-11T03:35:18;-8.90;99.90
10472;DHT22;5283;48.876;8.962;2024-01-11T03:37:45;-8.80;99.90
10472;DHT22;5283;48.876;8.962;2024-01-11T03:40:12;-8.90;99.90
10472;DHT22;5283;48.876;8.962;2024-01-11T03:42:39;-8.90;99.90
10472;DHT22;5283;48.876;8.962;2024-01-11T03:45:06;-8.90;99.90
10472;DHT22;5283;48.876;8.962;2024-01-11T03:47:33;-9.00;99.90
10472;DHT22;5283;48.876;8.962;2024-01-11T03:49:59;-9.10;99.90
10472;DHT22;5283;48.876;8.962;2024-01-11T03:52:26;-9.00;99.90
10472;DHT22;5283;48.876;8.962;2024-01-11T03:54:53;-9.10;99.90
10472;DHT22;5283;48.876;8.962;2024-01-11T03:57:19;-9.20;99.90
10472;DHT22;5283;48.876;8.962;2024-01-11T03:59:46;-9.20;99.90
10472;DHT22;5283;48.876;8.962;2024-01-11T04:02:13;-9.20;99.90
10472;DHT22;5283;48.876;8.962;2024-01-11T04:04:41;-9.30;99.90
10472;DHT22;5283;48.876;8.962;2024-01-11T04:07:07;-9.30;99.90
10472;DHT22;5283;48.876;8.962;2024-01-11T04:09:37;-9.30;99.90
10472;DHT22;5283;48.876;8.962;2024-01-11T04:12:05;-9.30;99.90
10472;DHT22;5283;48.876;8.962;2024-01-11T04:14:32;-9.20;99.90
10472;DHT22;5283;48.876;8.962;2024-01-11T04:16:59;-9.20;99.90
10472;DHT22;5283;48.876;8.962;2024-01-11T04:19:26;-9.20;99.90
10472;DHT22;5283;48.876;8.962;2024-01-11T04:21:52;-9.20;99.90
10472;DHT22;5283;48.876;8.962;2024-01-11T04:24:19;-9.20;99.90
10472;DHT22;5283;48.876;8.962;2024-01-11T04:26:46;-9.30;99.90
10472;DHT22;5283;48.876;8.962;2024-01-11T04:29:13;-9.30;99.90
10472;DHT22;5283;48.876;8.962;2024-01-11T04:31:40;-9.30;99.90
10472;DHT22;5283;48.876;8.962;2024-01-11T04:34:07;-9.20;99.90
10472;DHT22;5283;48.876;8.962;2024-01-11T04:36:37;-9.20;99.90
10472;DHT22;5283;48.876;8.962;2024-01-11T04:39:04;-9.30;99.90
10472;DHT22;5283;48.876;8.962;2024-01-11T04:41:31;-9.30;99.90
10472;DHT22;5283;48.876;8.962;2024-01-11T04:43:57;-9.20;99.90
10472;DHT22;5283;48.876;8.962;2024-01-11T04:46:24;-9.20;99.90
10472;DHT22;5283;48.876;8.962;2024-01-11T04:48:51;-9.20;99.90
10472;DHT22;5283;48.876;8.962;2024-01-11T04:51:18;-9.10;99.90
10472;DHT22;5283;48.876;8.962;2024-01-11T04:53:45;-9.20;99.90
10472;DHT22;5283;48.876;8.962;2024-01-11T04:56:14;-9.20;99.90
10472;DHT22;5283;48.876;8.962;2024-01-11T04:58:43;-9.20;99.90
10472;DHT22;5283;48.876;8.962;2024-01-11T05:01:14;-9.30;99.90
10472;DHT22;5283;48.876;8.962;2024-01-11T05:03:41;-9.30;99.90
10472;DHT22;5283;48.876;8.962;2024-01-11T05:06:14;-9.30;99.90
10472;DHT22;5283;48.876;8.962;2024-01-11T05:08:41;-9.40;99.90
10472;DHT22;5283;48.876;8.962;2024-01-11T05:11:08;-9.50;99.90
10472;DHT22;5283;48.876;8.962;2024-01-11T05:13:41;-9.40;99.90
10472;DHT22;5283;48.876;8.962;2024-01-11T05:16:19;-9.50;99.90
10472;DHT22;5283;48.876;8.962;2024-01-11T05:18:46;-9.50;99.90
10472;DHT22;5283;48.876;8.962;2024-01-11T05:21:13;-9.40;99.90
10472;DHT22;5283;48.876;8.962;2024-01-11T05:23:43;-9.40;99.90
10472;DHT22;5283;48.876;8.962;2024-01-11T05:26:10;-9.40;99.90
10472;DHT22;5283;48.876;8.962;2024-01-11T05:28:37;-9.30;99.90
10472;DHT22;5283;48.876;8.962;2024-01-11T05:31:10;-9.20;99.90
10472;DHT22;5283;48.876;8.962;2024-01-11T05:33:38;-9.30;99.90
10472;DHT22;5283;48.876;8.962;2024-01-11T05:36:05;-9.40;99.90
10472;DHT22;5283;48.876;8.962;2024-01-11T05:38:33;-9.40;99.90
10472;DHT22;5283;48.876;8.962;2024-01-11T05:41:00;-9.40;99.90
10472;DHT22;5283;48.876;8.962;2024-01-11T05:43:26;-9.40;99.90
10472;DHT22;5283;48.876;8.962;2024-01-11T05:45:53;-9.40;99.90
10472;DHT22;5283;48.876;8.962;2024-01-11T05:48:20;-9.50;99.90
10472;DHT22;5283;48.876;8.962;2024-01-11T05:50:47;-9.40;99.90
10472;DHT22;5283;48.876;8.962;2024-01-11T05:53:13;-9.40;99.90
10472;DHT22;5283;48.876;8.962;2024-01-11T05:55:40;-9.40;99.90
10472;DHT22;5283;48.876;8.962;2024-01-11T05:58:07;-9.40;99.90
10472;DHT22;5283;48.876;8.962;2024-01-11T06:00:34;-9.40;99.90
10472;DHT22;5283;48.876;8.962;2024-01-11T06:03:01;-9.30;99.90
10472;DHT22;5283;48.876;8.962;2024-01-11T06:05:28;-9.40;99.90
10472;DHT22;5283;48.876;8.962;2024-01-11T06:07:54;-9.30;99.90
10472;DHT22;5283;48.876;8.962;2024-01-11T06:10:21;-9.20;99.90
10472;DHT22;5283;48.876;8.962;2024-01-11T06:12:48;-9.20;99.90
10472;DHT22;5283;48.876;8.962;2024-01-11T06:15:15;-9.30;99.90
10472;DHT22;5283;48.876;8.962;2024-01-11T06:17:41;-9.20;99.90
10472;DHT22;5283;48.876;8.962;2024-01-11T06:20:09;-9.40;99.90
10472;DHT22;5283;48.876;8.962;2024-01-11T06:22:37;-9.40;99.90
10472;DHT22;5283;48.876;8.962;2024-01-11T06:25:04;-9.50;99.90
10472;DHT22;5283;48.876;8.962;2024-01-11T06:27:31;-9.50;99.90
10472;DHT22;5283;48.876;8.962;2024-01-11T06:29:58;-9.60;99.90
10472;DHT22;5283;48.876;8.962;2024-01-11T06:32:25;-9.60;99.90
10472;DHT22;5283;48.876;8.962;2024-01-11T06:34:52;-9.60;99.90
10472;DHT22;5283;48.876;8.962;2024-01-11T06:37:18;-9.50;99.90
10472;DHT22;5283;48.876;8.962;2024-01-11T06:39:45;-9.50;99.90
10472;DHT22;5283;48.876;8.962;2024-01-11T06:42:12;-9.50;99.90
10472;DHT22;5283;48.876;8.962;2024-01-11T06:44:39;-9.50;99.90
10472;DHT22;5283;48.876;8.962;2024-01-11T06:47:05;-9.40;99.90
10472;DHT22;5283;48.876;8.962;2024-01-11T06:49:33;-9.50;99.90
10472;DHT22;5283;48.876;8.962;2024-01-11T06:51:59;-9.40;99.90
10472;DHT22;5283;48.876;8.962;2024-01-11T06:54:26;-9.50;99.90
10472;DHT22;5283;48.876;8.962;2024-01-11T06:56:53;-9.50;99.90
10472;DHT22;5283;48.876;8.962;2024-01-11T06:59:20;-9.70;99.90
10472;DHT22;5283;48.876;8.962;2024-01-11T07:01:46;-9.80;99.90
10472;DHT22;5283;48.876;8.962;2024-01-11T07:04:13;-9.80;99.90
10472;DHT22;5283;48.876;8.962;2024-01-11T07:06:41;-9.70;99.90
10472;DHT22;5283;48.876;8.962;2024-01-11T07:09:08;-9.50;99.90
10472;DHT22;5283;48.876;8.962;2024-01-11T07:11:34;-9.40;99.90
10472;DHT22;5283;48.876;8.962;2024-01-11T07:14:01;-9.50;99.90
10472;DHT22;5283;48.876;8.962;2024-01-11T07:16:28;-9.50;99.90
10472;DHT22;5283;48.876;8.962;2024-01-11T07:18:54;-9.50;99.90
10472;DHT22;5283;48.876;8.962;2024-01-11T07:21:22;-9.40;99.90
10472;DHT22;5283;48.876;8.962;2024-01-11T07:23:56;-9.40;99.90
10472;DHT22;5283;48.876;8.962;2024-01-11T07:26:26;-9.40;99.90
10472;DHT22;5283;48.876;8.962;2024-01-11T07:28:55;-9.30;99.90
10472;DHT22;5283;48.876;8.962;2024-01-11T07:31:22;-9.40;99.90
10472;DHT22;5283;48.876;8.962;2024-01-11T07:33:49;-9.40;99.90
10472;DHT22;5283;48.876;8.962;2024-01-11T07:36:17;-9.50;99.90
10472;DHT22;5283;48.876;8.962;2024-01-11T07:38:43;-9.40;99.90
10472;DHT22;5283;48.876;8.962;2024-01-11T07:41:10;-9.30;99.90
10472;DHT22;5283;48.876;8.962;2024-01-11T07:43:38;-9.20;99.90
10472;DHT22;5283;48.876;8.962;2024-01-11T07:46:06;-9.20;99.90
10472;DHT22;5283;48.876;8.962;2024-01-11T07:48:34;-9.20;99.90
10472;DHT22;5283;48.876;8.962;2024-01-11T07:51:01;-9.20;99.90
10472;DHT22;5283;48.876;8.962;2024-01-11T07:53:28;-9.20;99.90
10472;DHT22;5283;48.876;8.962;2024-01-11T07:55:55;-9.20;99.90
10472;DHT22;5283;48.876;8.962;2024-01-11T07:58:22;-9.10;99.90
10472;DHT22;5283;48.876;8.962;2024-01-11T08:00:48;-9.00;99.90
10472;DHT22;5283;48.876;8.962;2024-01-11T08:03:15;-8.90;99.90
10472;DHT22;5283;48.876;8.962;2024-01-11T08:05:42;-8.80;99.90
10472;DHT22;5283;48.876;8.962;2024-01-11T08:08:11;-8.80;99.90
10472;DHT22;5283;48.876;8.962;2024-01-11T08:10:37;-8.70;99.90
10472;DHT22;5283;48.876;8.962;2024-01-11T08:13:04;-8.70;99.90
10472;DHT22;5283;48.876;8.962;2024-01-11T08:15:31;-8.60;99.90
10472;DHT22;5283;48.876;8.962;2024-01-11T08:17:57;-8.50;99.90
10472;DHT22;5283;48.876;8.962;2024-01-11T08:20:24;-8.50;99.90
10472;DHT22;5283;48.876;8.962;2024-01-11T08:22:51;-8.40;99.90
10472;DHT22;5283;48.876;8.962;2024-01-11T08:25:18;-8.40;99.90
10472;DHT22;5283;48.876;8.962;2024-01-11T08:27:44;-8.30;99.90
10472;DHT22;5283;48.876;8.962;2024-01-11T08:30:11;-8.30;99.90
10472;DHT22;5283;48.876;8.962;2024-01-11T08:32:39;-8.20;99.90
10472;DHT22;5283;48.876;8.962;2024-01-11T08:35:11;-8.10;99.90
10472;DHT22;5283;48.876;8.962;2024-01-11T08:37:38;-8.00;99.90
10472;DHT22;5283;48.876;8.962;2024-01-11T08:40:06;-8.00;99.90
10472;DHT22;5283;48.876;8.962;2024-01-11T08:42:33;-7.90;99.90
10472;DHT22;5283;48.876;8.962;2024-01-11T08:44:59;-7.80;99.90
10472;DHT22;5283;48.876;8.962;2024-01-11T08:47:34;-7.70;99.90
10472;DHT22;5283;48.876;8.962;2024-01-11T08:50:01;-7.60;99.90
10472;DHT22;5283;48.876;8.962;2024-01-11T08:52:32;-7.60;99.90
10472;DHT22;5283;48.876;8.962;2024-01-11T08:55:00;-7.40;99.90
10472;DHT22;5283;48.876;8.962;2024-01-11T08:57:26;-7.30;99.90
10472;DHT22;5283;48.876;8.962;2024-01-11T08:59:53;-7.20;99.90
10472;DHT22;5283;48.876;8.962;2024-01-11T09:02:21;-7.10;99.90
10472;DHT22;5283;48.876;8.962;2024-01-11T09:04:49;-7.00;99.90
10472;DHT22;5283;48.876;8.962;2024-01-11T09:07:16;-6.90;99.90
10472;DHT22;5283;48.876;8.962;2024-01-11T09:09:42;-6.80;99.90
10472;DHT22;5283;48.876;8.962;2024-01-11T09:12:12;-6.70;99.90
10472;DHT22;5283;48.876;8.962;2024-01-11T09:14:39;-6.60;99.90
10472;DHT22;5283;48.876;8.962;2024-01-11T09:17:06;-6.50;99.90
10472;DHT22;5283;48.876;8.962;2024-01-11T09:19:33;-6.30;99.90
10472;DHT22;5283;48.876;8.962;2024-01-11T09:22:04;-6.30;99.90
10472;DHT22;5283;48.876;8.962;2024-01-11T09:24:31;-6.10;99.90
10472;DHT22;5283;48.876;8.962;2024-01-11T09:26:59;-6.00;99.90
10472;DHT22;5283;48.876;8.962;2024-01-11T09:29:26;-5.90;99.90
10472;DHT22;5283;48.876;8.962;2024-01-11T09:31:54;-5.80;99.90
10472;DHT22;5283;48.876;8.962;2024-01-11T09:34:20;-5.70;99.90
10472;DHT22;5283;48.876;8.962;2024-01-11T09:36:47;-5.70;99.90
10472;DHT22;5283;48.876;8.962;2024-01-11T09:39:14;-5.60;99.90
10472;DHT22;5283;48.876;8.962;2024-01-11T09:41:42;-5.50;99.90
10472;DHT22;5283;48.876;8.962;2024-01-11T09:44:14;-5.40;99.90
10472;DHT22;5283;48.876;8.962;2024-01-11T09:46:41;-5.30;99.90
10472;DHT22;5283;48.876;8.962;2024-01-11T09:49:08;-5.20;99.90
10472;DHT22;5283;48.876;8.962;2024-01-11T09:51:38;-5.10;99.90
10472;DHT22;5283;48.876;8.962;2024-01-11T09:54:05;-5.00;99.90
10472;DHT22;5283;48.876;8.962;2024-01-11T09:56:33;-5.00;99.90
10472;DHT22;5283;48.876;8.962;2024-01-11T09:59:02;-4.90;99.90
10472;DHT22;5283;48.876;8.962;2024-01-11T10:01:32;-4.80;99.90
10472;DHT22;5283;48.876;8.962;2024-01-11T10:03:59;-4.70;99.90
10472;DHT22;5283;48.876;8.962;2024-01-11T10:06:27;-4.50;99.90
10472;DHT22;5283;48.876;8.962;2024-01-11T10:08:54;-4.50;99.90
10472;DHT22;5283;48.876;8.962;2024-01-11T10:11:20;-4.40;99.90
10472;DHT22;5283;48.876;8.962;2024-01-11T10:13:47;-4.40;99.90
10472;DHT22;5283;48.876;8.962;2024-01-11T10:16:14;-4.30;99.90
10472;DHT22;5283;48.876;8.962;2024-01-11T10:18:42;-4.30;99.90
10472;DHT22;5283;48.876;8.962;2024-01-11T10:21:09;-4.20;99.90
10472;DHT22;5283;48.876;8.962;2024-01-11T10:23:36;-4.10;99.90
10472;DHT22;5283;48.876;8.962;2024-01-11T10:26:03;-4.00;99.90
10472;DHT22;5283;48.876;8.962;2024-01-11T10:28:30;-4.00;99.90
10472;DHT22;5283;48.876;8.962;2024-01-11T10:30:57;-3.90;99.90
10472;DHT22;5283;48.876;8.962;2024-01-11T10:33:24;-3.80;99.90
10472;DHT22;5283;48.876;8.962;2024-01-11T10:35:51;-3.80;99.90
10472;DHT22;5283;48.876;8.962;2024-01-11T10:38:17;-3.70;99.90
10472;DHT22;5283;48.876;8.962;2024-01-11T10:40:45;-3.60;99.90
10472;DHT22;5283;48.876;8.962;2024-01-11T10:43:15;-3.60;99.90
10472;DHT22;5283;48.876;8.962;2024-01-11T10:45:44;-3.50;99.90
10472;DHT22;5283;48.876;8.962;2024-01-11T10:48:15;-3.40;99.90
10472;DHT22;5283;48.876;8.962;2024-01-11T10:50:43;-3.30;99.90
10472;DHT22;5283;48.876;8.962;2024-01-11T10:55:57;-3.20;99.90
10472;DHT22;5283;48.876;8.962;2024-01-11T10:58:29;-3.10;99.90
10472;DHT22;5283;48.876;8.962;2024-01-11T11:00:57;-3.10;99.90
10472;DHT22;5283;48.876;8.962;2024-01-11T11:03:26;-3.00;99.90
10472;DHT22;5283;48.876;8.962;2024-01-11T11:05:55;-3.00;99.90
10472;DHT22;5283;48.876;8.962;2024-01-11T11:08:22;-2.90;99.90
10472;DHT22;5283;48.876;8.962;2024-01-11T11:10:54;-2.80;99.90
10472;DHT22;5283;48.876;8.962;2024-01-11T11:13:22;-2.80;99.90
10472;DHT22;5283;48.876;8.962;2024-01-11T11:15:49;-2.80;99.90
10472;DHT22;5283;48.876;8.962;2024-01-11T11:18:17;-2.70;99.90
10472;DHT22;5283;48.876;8.962;2024-01-11T11:20:45;-2.70;99.90
10472;DHT22;5283;48.876;8.962;2024-01-11T11:23:14;-2.70;99.90
10472;DHT22;5283;48.876;8.962;2024-01-11T11:25:41;-2.70;99.90
10472;DHT22;5283;48.876;8.962;2024-01-11T11:28:11;-2.60;99.90
10472;DHT22;5283;48.876;8.962;2024-01-11T11:30:39;-2.60;99.90
10472;DHT22;5283;48.876;8.962;2024-01-11T11:33:16;-2.50;99.90
10472;DHT22;5283;48.876;8.962;2024-01-11T11:35:43;-2.40;99.90
10472;DHT22;5283;48.876;8.962;2024-01-11T11:38:19;-2.30;99.90
10472;DHT22;5283;48.876;8.962;2024-01-11T11:40:47;-2.20;99.90
10472;DHT22;5283;48.876;8.962;2024-01-11T11:43:16;-2.20;99.90
10472;DHT22;5283;48.876;8.962;2024-01-11T11:45:45;-2.10;99.90
10472;DHT22;5283;48.876;8.962;2024-01-11T11:51:11;-2.00;99.90
10472;DHT22;5283;48.876;8.962;2024-01-11T11:53:39;-2.00;99.90
10472;DHT22;5283;48.876;8.962;2024-01-11T11:56:08;-1.90;99.90
10472;DHT22;5283;48.876;8.962;2024-01-11T11:58:39;-1.90;99.90
10472;DHT22;5283;48.876;8.962;2024-01-11T12:01:05;-1.80;99.90
10472;DHT22;5283;48.876;8.962;2024-01-11T12:03:41;-1.80;99.90
10472;DHT22;5283;48.876;8.962;2024-01-11T12:06:09;-1.80;99.90
10472;DHT22;5283;48.876;8.962;2024-01-11T12:08:37;-1.70;99.90
10472;DHT22;5283;48.876;8.962;2024-01-11T12:11:04;-1.70;99.90
10472;DHT22;5283;48.876;8.962;2024-01-11T12:13:32;-1.70;99.90
10472;DHT22;5283;48.876;8.962;2024-01-11T12:15:59;-1.70;99.90
10472;DHT22;5283;48.876;8.962;2024-01-11T12:18:26;-1.60;99.90
10472;DHT22;5283;48.876;8.962;2024-01-11T12:20:53;-1.50;99.90
10472;DHT22;5283;48.876;8.962;2024-01-11T12:23:20;-1.50;99.90
10472;DHT22;5283;48.876;8.962;2024-01-11T12:25:47;-1.50;99.90
10472;DHT22;5283;48.876;8.962;2024-01-11T12:28:14;-1.40;99.90
10472;DHT22;5283;48.876;8.962;2024-01-11T12:30:41;-1.40;99.90
10472;DHT22;5283;48.876;8.962;2024-01-11T12:33:09;-1.30;99.90
10472;DHT22;5283;48.876;8.962;2024-01-11T12:35:37;-1.30;99.90
10472;DHT22;5283;48.876;8.962;2024-01-11T12:38:05;-1.20;99.90
10472;DHT22;5283;48.876;8.962;2024-01-11T12:40:38;-1.10;99.90
10472;DHT22;5283;48.876;8.962;2024-01-11T12:43:06;-1.10;99.90
10472;DHT22;5283;48.876;8.962;2024-01-11T12:45:37;-1.00;99.90
10472;DHT22;5283;48.876;8.962;2024-01-11T12:48:07;-1.00;99.90
10472;DHT22;5283;48.876;8.962;2024-01-11T12:50:34;-1.00;99.90
10472;DHT22;5283;48.876;8.962;2024-01-11T12:53:08;-1.00;99.90
10472;DHT22;5283;48.876;8.962;2024-01-11T12:55:35;-0.90;99.90
10472;DHT22;5283;48.876;8.962;2024-01-11T12:58:07;-0.90;99.90
10472;DHT22;5283;48.876;8.962;2024-01-11T13:00:36;-0.90;99.90
10472;DHT22;5283;48.876;8.962;2024-01-11T13:03:04;-0.80;99.90
10472;DHT22;5283;48.876;8.962;2024-01-11T13:05:32;-0.80;99.90
10472;DHT22;5283;48.876;8.962;2024-01-11T13:08:02;-0.70;99.90
10472;DHT22;5283;48.876;8.962;2024-01-11T13:10:32;-0.80;99.90
10472;DHT22;5283;48.876;8.962;2024-01-11T13:12:59;-0.80;99.90
10472;DHT22;5283;48.876;8.962;2024-01-11T13:15:26;-0.80;99.90
10472;DHT22;5283;48.876;8.962;2024-01-11T13:17:53;-0.80;99.90
10472;DHT22;5283;48.876;8.962;2024-01-11T13:20:20;-0.80;99.90
10472;DHT22;5283;48.876;8.962;2024-01-11T13:22:47;-0.80;99.90
10472;DHT22;5283;48.876;8.962;2024-01-11T13:25:13;-0.60;99.90
10472;DHT22;5283;48.876;8.962;2024-01-11T13:27:40;-0.60;99.90
10472;DHT22;5283;48.876;8.962;2024-01-11T13:30:07;-0.60;99.90
10472;DHT22;5283;48.876;8.962;2024-01-11T13:32:35;-0.50;99.90
10472;DHT22;5283;48.876;8.962;2024-01-11T13:35:02;-0.60;99.90
10472;DHT22;5283;48.876;8.962;2024-01-11T13:37:28;-0.60;99.90
10472;DHT22;5283;48.876;8.962;2024-01-11T13:39:55;-0.60;99.90
10472;DHT22;5283;48.876;8.962;2024-01-11T13:42:22;-0.60;99.90
10472;DHT22;5283;48.876;8.962;2024-01-11T13:44:48;-0.60;99.90
10472;DHT22;5283;48.876;8.962;2024-01-11T13:47:15;-0.60;99.90
10472;DHT22;5283;48.876;8.962;2024-01-11T13:49:42;-0.60;99.90
10472;DHT22;5283;48.876;8.962;2024-01-11T13:52:09;-0.60;99.90
10472;DHT22;5283;48.876;8.962;2024-01-11T13:54:35;-0.70;99.90
10472;DHT22;5283;48.876;8.962;2024-01-11T13:57:03;-0.70;99.90
10472;DHT22;5283;48.876;8.962;2024-01-11T13:59:29;-0.80;99.90
10472;DHT22;5283;48.876;8.962;2024-01-11T14:01:56;-0.70;99.90
10472;DHT22;5283;48.876;8.962;2024-01-11T14:04:23;-0.70;99.90
10472;DHT22;5283;48.876;8.962;2024-01-11T14:06:50;-0.70;99.90
10472;DHT22;5283;48.876;8.962;2024-01-11T14:09:18;-0.80;99.90
10472;DHT22;5283;48.876;8.962;2024-01-11T14:11:45;-0.80;99.90
10472;DHT22;5283;48.876;8.962;2024-01-11T14:14:15;-0.80;99.90
10472;DHT22;5283;48.876;8.962;2024-01-11T14:16:41;-0.80;99.90
10472;DHT22;5283;48.876;8.962;2024-01-11T14:19:08;-0.70;99.90
10472;DHT22;5283;48.876;8.962;2024-01-11T14:21:36;-0.70;99.90
10472;DHT22;5283;48.876;8.962;2024-01-11T14:24:04;-0.70;99.90
10472;DHT22;5283;48.876;8.962;2024-01-11T14:26:31;-0.80;99.90
10472;DHT22;5283;48.876;8.962;2024-01-11T14:28:59;-0.80;99.90
10472;DHT22;5283;48.876;8.962;2024-01-11T14:31:27;-0.80;99.90
10472;DHT22;5283;48.876;8.962;2024-01-11T14:33:54;-0.80;99.90
10472;DHT22;5283;48.876;8.962;2024-01-11T14:36:21;-0.80;99.90
10472;DHT22;5283;48.876;8.962;2024-01-11T14:38:47;-0.80;99.90
10472;DHT22;5283;48.876;8.962;2024-01-11T14:41:14;-0.80;99.90
10472;DHT22;5283;48.876;8.962;2024-01-11T14:43:42;-0.80;99.90
10472;DHT22;5283;48.876;8.962;2024-01-11T14:46:08;-0.80;99.90
10472;DHT22;5283;48.876;8.962;2024-01-11T14:48:37;-0.80;99.90
10472;DHT22;5283;48.876;8.962;2024-01-11T14:51:04;-1.00;99.90
10472;DHT22;5283;48.876;8.962;2024-01-11T14:53:34;-1.10;99.90
10472;DHT22;5283;48.876;8.962;2024-01-11T14:56:01;-1.30;99.90
10472;DHT22;5283;48.876;8.962;2024-01-11T14:58:27;-1.30;99.90
10472;DHT22;5283;48.876;8.962;2024-01-11T15:00:54;-1.40;99.90
10472;DHT22;5283;48.876;8.962;2024-01-11T15:03:21;-1.60;99.90
10472;DHT22;5283;48.876;8.962;2024-01-11T15:05:47;-1.70;99.90
10472;DHT22;5283;48.876;8.962;2024-01-11T15:08:14;-1.80;99.90
10472;DHT22;5283;48.876;8.962;2024-01-11T15:10:42;-1.80;99.90
10472;DHT22;5283;48.876;8.962;2024-01-11T15:13:09;-1.80;99.90
10472;DHT22;5283;48.876;8.962;2024-01-11T15:15:35;-1.90;99.90
10472;DHT22;5283;48.876;8.962;2024-01-11T15:18:04;-2.00;99.90
10472;DHT22;5283;48.876;8.962;2024-01-11T15:20:31;-2.10;99.90
10472;DHT22;5283;48.876;8.962;2024-01-11T15:22:58;-2.20;99.90
10472;DHT22;5283;48.876;8.962;2024-01-11T15:25:25;-2.30;99.90
10472;DHT22;5283;48.876;8.962;2024-01-11T15:27:53;-2.40;99.90
10472;DHT22;5283;48.876;8.962;2024-01-11T15:30:21;-2.50;99.90
10472;DHT22;5283;48.876;8.962;2024-01-11T15:32:48;-2.60;99.90
10472;DHT22;5283;48.876;8.962;2024-01-11T15:35:15;-2.70;99.90
10472;DHT22;5283;48.876;8.962;2024-01-11T15:37:42;-2.80;99.90
10472;DHT22;5283;48.876;8.962;2024-01-11T15:40:09;-3.00;99.90
10472;DHT22;5283;48.876;8.962;2024-01-11T15:42:36;-3.10;99.90
10472;DHT22;5283;48.876;8.962;2024-01-11T15:45:04;-3.30;99.90
10472;DHT22;5283;48.876;8.962;2024-01-11T15:47:33;-3.40;99.90
10472;DHT22;5283;48.876;8.962;2024-01-11T15:50:00;-3.40;99.90
10472;DHT22;5283;48.876;8.962;2024-01-11T15:52:27;-3.60;99.90